Time;durP1;ratioP1;P1;durP2;ratioP2;P2;SDS_P1;SDS_P2;PMS_P1;PMS_P2;Temp;Humidity;BMP_temperature;BMP_pressure;BME280_temperature;BME280_humidity;BME280_pressure;Samples;Min_cycle;Max_cycle;Signal;HPM_P1;HPM_P2
2023/07/20 00:01:54;;;;;;;9.80;4.80;;;;;;;22.11;47.75;99525.21;108073;1253;61125;-68
2023/07/20 00:04:21;;;;;;;13.90;5.30;;;;;;;22.15;47.76;99526.50;108034;1255;59940;-69
2023/07/20 00:06:49;;;;;;;7.90;3.60;;;;;;;22.21;47.61;99524.35;107990;1254;71672;-68
2023/07/20 00:09:16;;;;;;;9.40;4.50;;;;;;;22.26;47.65;99524.16;107989;1254;69979;-67
2023/07/20 00:11:53;;;;;;;11.20;4.70;;;;;;;22.27;47.53;99516.98;107980;1254;72803;-68
2023/07/20 00:14:20;;;;;;;10.20;5.00;;;;;;;22.23;47.76;99520.23;108153;1254;60472;-70
2023/07/20 00:16:55;;;;;;;7.40;4.50;;;;;;;22.24;48.01;99513.15;108078;1254;60335;-68
2023/07/20 00:19:26;;;;;;;13.90;5.20;;;;;;;22.08;48.07;99517.13;108065;1254;76172;-68
2023/07/20 00:21:54;;;;;;;12.20;4.80;;;;;;;21.98;48.22;99520.56;107980;1254;70418;-68
2023/07/20 00:24:22;;;;;;;9.00;5.50;;;;;;;21.98;48.16;99518.92;108102;1254;71386;-69
2023/07/20 00:26:49;;;;;;;12.20;5.20;;;;;;;21.92;48.38;99520.17;108033;1257;60739;-67
2023/07/20 00:29:17;;;;;;;10.60;5.00;;;;;;;22.07;47.91;99517.58;108073;1254;60371;-69
2023/07/20 00:31:46;;;;;;;10.00;4.70;;;;;;;21.88;48.35;99519.38;108078;1254;73109;-68
2023/07/20 00:34:15;;;;;;;14.80;5.20;;;;;;;22.01;48.19;99519.54;108039;1254;70247;-68
2023/07/20 00:36:43;;;;;;;10.30;5.70;;;;;;;21.97;48.17;99522.56;107978;1254;71533;-69
2023/07/20 00:39:11;;;;;;;9.10;5.30;;;;;;;21.91;48.19;99516.95;107974;1254;60637;-68
2023/07/20 00:41:39;;;;;;;12.30;4.70;;;;;;;21.87;48.07;99514.77;108055;1254;60580;-65
2023/07/20 00:44:06;;;;;;;8.60;5.20;;;;;;;21.85;48.21;99515.04;107992;1259;73855;-67
2023/07/20 00:46:33;;;;;;;10.20;4.70;;;;;;;21.89;48.10;99513.83;107959;1254;68710;-67
2023/07/20 00:49:03;;;;;;;10.10;4.90;;;;;;;21.96;48.09;99516.12;107889;1260;72724;-68
2023/07/20 00:51:31;;;;;;;9.50;5.40;;;;;;;21.88;48.20;99518.28;107860;1254;61831;-68
2023/07/20 00:53:58;;;;;;;11.50;4.20;;;;;;;21.70;48.49;99519.80;108008;1254;60356;-67
2023/07/20 00:56:26;;;;;;;7.80;4.90;;;;;;;21.66;48.88;99522.36;107864;1254;73875;-65
2023/07/20 00:58:53;;;;;;;11.00;5.30;;;;;;;21.57;49.23;99521.20;107945;1254;69954;-67
2023/07/20 01:01:22;;;;;;;11.90;5.60;;;;;;;21.58;49.36;99524.80;108054;1254;72745;-67
2023/07/20 01:03:50;;;;;;;11.70;5.00;;;;;;;21.45;49.76;99527.23;108005;1253;60658;-69
2023/07/20 01:06:40;;;;;;;8.60;4.70;;;;;;;21.40;49.95;99521.98;108040;1255;60017;-68
2023/07/20 01:09:42;;;;;;;9.30;4.60;;;;;;;21.39;50.15;99522.14;108027;1254;73826;-68
2023/07/20 01:12:18;;;;;;;12.70;5.70;;;;;;;21.39;50.02;99523.86;108033;1254;68717;-69
2023/07/20 01:14:47;;;;;;;9.20;4.60;;;;;;;21.33;49.99;99521.20;107964;1254;72492;-67
2023/07/20 01:17:15;;;;;;;8.10;5.00;;;;;;;21.28;50.26;99521.27;107768;1253;61843;-67
2023/07/20 01:19:43;;;;;;;11.50;5.60;;;;;;;21.36;50.05;99524.64;108075;1254;60431;-67
2023/07/20 01:22:44;;;;;;;7.60;4.20;;;;;;;21.38;50.10;99525.20;108010;1254;73851;-69
2023/07/20 01:25:50;;;;;;;8.40;4.50;;;;;;;21.29;50.39;99525.88;107972;1254;70090;-69
2023/07/20 01:28:29;;;;;;;9.90;5.10;;;;;;;21.24;50.23;99526.88;107975;1259;71580;-67
2023/07/20 01:31:09;;;;;;;11.90;5.90;;;;;;;21.34;50.07;99523.95;107977;1254;61620;-67
2023/07/20 01:33:37;;;;;;;12.50;6.30;;;;;;;21.38;49.91;99518.27;107882;1254;61311;-69
2023/07/20 01:36:05;;;;;;;9.60;5.90;;;;;;;21.36;49.95;99520.39;107771;1254;73861;-68
2023/07/20 01:38:32;;;;;;;12.40;5.60;;;;;;;21.42;49.62;99519.65;107930;1260;70261;-68
2023/07/20 01:41:00;;;;;;;12.40;5.40;;;;;;;21.40;49.66;99524.66;108083;1256;71408;-67
2023/07/20 01:43:27;;;;;;;15.20;5.40;;;;;;;21.44;49.46;99526.44;108023;1254;60498;-67
2023/07/20 01:45:54;;;;;;;11.90;5.10;;;;;;;21.48;49.48;99524.36;108001;1255;60319;-67
2023/07/20 01:48:22;;;;;;;10.80;4.90;;;;;;;21.43;49.67;99526.41;107972;1254;73882;-68
2023/07/20 01:50:50;;;;;;;7.90;4.70;;;;;;;21.32;49.79;99525.58;108021;1254;70818;-68
2023/07/20 01:53:17;;;;;;;9.20;5.00;;;;;;;21.26;49.94;99527.39;108014;1257;72929;-68
2023/07/20 01:55:45;;;;;;;12.80;6.00;;;;;;;21.28;49.82;99526.83;107898;1260;60365;-67
2023/07/20 01:58:13;;;;;;;12.50;5.80;;;;;;;21.31;49.67;99524.83;108044;1254;60271;-68
2023/07/20 02:00:41;;;;;;;9.00;5.10;;;;;;;21.39;49.65;99524.41;107937;1254;73131;-68
2023/07/20 02:03:08;;;;;;;12.80;5.30;;;;;;;21.43;49.53;99524.95;108009;1254;68371;-69
2023/07/20 02:05:36;;;;;;;12.00;4.90;;;;;;;21.41;49.81;99524.98;107929;1254;71392;-69
2023/07/20 02:08:04;;;;;;;10.80;5.70;;;;;;;21.44;49.70;99525.90;108097;1254;61826;-68
2023/07/20 02:12:34;;;;;;;15.50;6.20;;;;;;;19.08;55.99;99528.77;104881;1290;600722;-67
2023/07/20 02:15:02;;;;;;;9.40;5.70;;;;;;;19.82;53.73;99525.37;107428;1262;60739;-68
2023/07/20 02:17:29;;;;;;;8.80;5.60;;;;;;;20.15;53.10;99524.33;107404;1264;59171;-66
2023/07/20 02:19:59;;;;;;;12.30;6.20;;;;;;;20.31;52.76;99524.77;107364;1261;71092;-68
2023/07/20 02:22:27;;;;;;;9.20;5.40;;;;;;;20.48;52.25;99524.15;107366;1263;69019;-64
2023/07/20 02:24:54;;;;;;;11.40;6.10;;;;;;;20.50;52.17;99528.23;107385;1263;72661;-68
2023/07/20 02:27:22;;;;;;;11.70;6.10;;;;;;;20.46;52.28;99529.27;107309;1261;234504;-67
2023/07/20 02:29:50;;;;;;;13.60;5.40;;;;;;;20.50;52.20;99528.04;107938;1257;60060;-68
2023/07/20 02:32:17;;;;;;;12.70;5.80;;;;;;;20.37;52.48;99528.34;107683;1260;72001;-69
2023/07/20 02:34:45;;;;;;;8.70;5.70;;;;;;;20.41;52.45;99526.92;107913;1256;69566;-70
2023/07/20 02:37:12;;;;;;;9.30;5.80;;;;;;;20.56;52.22;99525.41;107862;1258;72664;-68
2023/07/20 02:39:41;;;;;;;7.20;5.00;;;;;;;20.48;52.38;99524.16;107967;1255;60453;-68
2023/07/20 02:42:08;;;;;;;8.50;5.80;;;;;;;20.54;52.30;99524.34;107981;1259;60268;-68
2023/07/20 02:44:35;;;;;;;14.00;5.40;;;;;;;20.60;52.36;99527.54;107979;1254;71929;-68
2023/07/20 02:47:03;;;;;;;17.20;5.70;;;;;;;20.60;52.37;99528.13;107893;1259;70005;-68
2023/07/20 02:49:31;;;;;;;15.20;6.10;;;;;;;20.72;52.34;99525.27;107925;1255;71772;-68
2023/07/20 02:51:59;;;;;;;25.50;6.40;;;;;;;20.83;52.17;99523.57;107980;1253;61746;-68
2023/07/20 02:54:28;;;;;;;20.70;6.60;;;;;;;20.98;51.92;99526.16;108036;1254;60002;-68
2023/07/20 02:56:55;;;;;;;32.90;7.10;;;;;;;21.05;51.82;99521.59;108053;1254;73049;-69
2023/07/20 02:59:23;;;;;;;23.60;6.60;;;;;;;21.18;51.82;99521.83;107914;1259;69608;-68
2023/07/20 03:01:50;;;;;;;16.40;5.30;;;;;;;21.23;51.84;99521.55;107961;1254;72619;-68
2023/07/20 03:04:17;;;;;;;11.60;5.80;;;;;;;21.21;52.14;99520.51;107994;1254;61667;-68
2023/07/20 03:06:45;;;;;;;10.00;5.50;;;;;;;21.34;51.88;99523.05;108149;1254;59528;-67
2023/07/20 03:09:12;;;;;;;8.60;5.20;;;;;;;21.36;52.11;99522.05;108067;1254;73043;-69
2023/07/20 03:11:39;;;;;;;8.20;5.50;;;;;;;21.19;52.65;99522.69;108168;1255;69942;-70
2023/07/20 03:14:07;;;;;;;9.30;5.00;;;;;;;21.34;52.56;99518.65;108140;1254;73828;-68
2023/07/20 03:16:34;;;;;;;9.90;4.90;;;;;;;21.76;51.71;99516.75;107988;1257;61273;-69
2023/07/20 03:19:02;;;;;;;9.30;5.90;;;;;;;21.93;51.30;99516.15;108031;1252;59424;-68
2023/07/20 03:21:30;;;;;;;10.20;4.70;;;;;;;22.08;51.22;99517.65;108164;1255;73021;-67
2023/07/20 03:23:59;;;;;;;10.80;5.20;;;;;;;22.20;51.14;99514.17;108063;1258;68775;-66
2023/07/20 03:26:26;;;;;;;9.00;4.90;;;;;;;21.98;51.81;99513.59;107907;1254;71480;-69
2023/07/20 03:28:54;;;;;;;10.30;5.10;;;;;;;22.14;51.75;99515.29;107977;1259;61664;-68
2023/07/20 03:31:21;;;;;;;10.80;5.00;;;;;;;22.31;51.56;99514.93;108062;1258;60085;-70
2023/07/20 03:33:49;;;;;;;10.70;4.90;;;;;;;22.55;51.11;99515.65;108020;1254;73192;-69
2023/07/20 03:36:17;;;;;;;8.20;5.10;;;;;;;22.64;51.14;99516.63;108099;1258;68549;-70
2023/07/20 03:38:44;;;;;;;7.70;4.30;;;;;;;23.44;49.51;99511.41;108116;1253;71599;-71
2023/07/20 03:41:12;;;;;;;4.70;4.00;;;;;;;23.63;49.10;99509.30;107968;1260;61754;-70
2023/07/20 03:43:40;;;;;;;9.80;4.90;;;;;;;23.77;49.03;99517.31;107943;1254;59984;-68
2023/07/20 03:46:07;;;;;;;9.40;4.60;;;;;;;23.98;48.66;99517.95;108035;1254;72608;-69
2023/07/20 03:48:34;;;;;;;8.00;4.20;;;;;;;24.22;48.31;99513.84;108058;1256;70550;-70
2023/07/20 03:51:02;;;;;;;8.10;4.30;;;;;;;24.58;47.78;99509.61;108038;1254;71728;-68
2023/07/20 03:53:29;;;;;;;6.70;3.90;;;;;;;24.89;47.02;99514.73;108032;1253;61703;-69
2023/07/20 03:55:57;;;;;;;11.30;4.20;;;;;;;25.26;46.31;99516.32;108072;1254;59957;-70
2023/07/20 03:58:25;;;;;;;11.00;5.10;;;;;;;25.46;46.02;99513.35;108092;1254;71838;-69
2023/07/20 04:00:52;;;;;;;12.10;4.10;;;;;;;25.72;45.57;99514.91;108086;1254;69312;-69
2023/07/20 04:03:20;;;;;;;7.30;3.70;;;;;;;26.10;44.63;99514.48;108105;1253;71369;-69
2023/07/20 04:05:48;;;;;;;8.70;3.70;;;;;;;26.45;43.35;99514.02;108064;1254;60371;-69
2023/07/20 04:08:15;;;;;;;8.00;3.40;;;;;;;26.59;42.71;99517.08;108009;1254;59564;-70
2023/07/20 04:10:45;;;;;;;7.20;3.70;;;;;;;26.78;42.03;99510.52;107999;1254;71880;-69
2023/07/20 04:13:13;;;;;;;5.80;3.30;;;;;;;27.20;40.53;99510.08;108047;1254;70295;-69
2023/07/20 04:15:42;;;;;;;9.60;3.60;;;;;;;27.56;39.65;99508.41;108048;1254;73033;-70
2023/07/20 04:18:09;;;;;;;5.00;2.90;;;;;;;27.89;38.49;99503.82;107981;1254;60584;-70
2023/07/20 04:20:37;;;;;;;6.60;3.20;;;;;;;28.25;37.77;99507.36;108036;1254;60076;-69
2023/07/20 04:23:04;;;;;;;12.00;3.40;;;;;;;28.59;37.32;99504.90;108119;1254;73382;-70
2023/07/20 04:25:38;;;;;;;8.40;2.90;;;;;;;28.99;36.29;99507.04;108018;1254;69432;-70
2023/07/20 04:28:09;;;;;;;8.90;3.20;;;;;;;29.36;35.56;99507.49;108145;1254;71474;-70
2023/07/20 04:30:40;;;;;;;11.70;3.50;;;;;;;29.73;35.13;99507.17;108160;1254;60392;-70
2023/07/20 04:33:07;;;;;;;6.40;2.60;;;;;;;30.02;34.61;99503.23;108018;1254;59925;-69
2023/07/20 04:35:50;;;;;;;6.10;2.80;;;;;;;30.28;34.19;99500.63;108142;1254;73606;-70
2023/07/20 04:38:21;;;;;;;5.00;2.80;;;;;;;30.52;33.71;99498.84;108147;1253;68823;-70
2023/07/20 04:40:55;;;;;;;8.20;3.10;;;;;;;30.44;33.79;99499.50;108126;1252;72756;-70
2023/07/20 04:43:22;;;;;;;7.90;3.40;;;;;;;30.43;34.05;99498.51;108134;1254;59243;-70
2023/07/20 04:45:50;;;;;;;9.30;4.10;;;;;;;30.49;34.20;99499.00;108082;1254;59998;-69
2023/07/20 04:48:18;;;;;;;8.30;3.80;;;;;;;30.44;34.01;99498.22;108124;1254;72711;-70
2023/07/20 04:50:49;;;;;;;7.50;3.50;;;;;;;30.60;34.18;99499.17;108084;1253;69210;-70
2023/07/20 04:53:17;;;;;;;13.00;3.20;;;;;;;30.98;33.88;99495.95;108059;1257;73129;-70
2023/07/20 04:55:51;;;;;;;8.40;3.70;;;;;;;31.52;33.26;99494.67;108023;1254;59634;-69
2023/07/20 04:58:20;;;;;;;7.00;3.30;;;;;;;31.64;32.97;99498.01;108007;1255;59409;-68
2023/07/20 05:00:49;;;;;;;7.30;3.00;;;;;;;31.82;32.60;99502.35;108025;1253;73170;-70
2023/07/20 05:03:17;;;;;;;7.50;3.00;;;;;;;31.92;32.22;99502.21;108072;1254;70698;-69
2023/07/20 05:05:47;;;;;;;7.70;3.60;;;;;;;32.15;32.05;99500.61;108031;1253;70889;-68
2023/07/20 05:08:16;;;;;;;6.80;2.60;;;;;;;32.31;31.37;99496.55;108116;1254;59708;-69
2023/07/20 05:10:44;;;;;;;5.30;2.50;;;;;;;32.31;31.49;99499.54;108037;1251;60076;-69
2023/07/20 05:13:11;;;;;;;5.60;2.90;;;;;;;32.21;31.44;99501.61;108056;1256;73094;-70
2023/07/20 05:15:39;;;;;;;6.50;3.00;;;;;;;32.14;31.78;99501.14;108078;1256;70941;-69
2023/07/20 05:18:10;;;;;;;4.80;2.60;;;;;;;32.09;31.36;99502.06;108194;1254;71886;-69
2023/07/20 05:20:37;;;;;;;5.50;2.70;;;;;;;32.01;31.65;99501.54;108095;1251;59413;-69
2023/07/20 05:23:05;;;;;;;6.00;3.00;;;;;;;31.97;31.72;99500.89;108097;1251;60145;-70
2023/07/20 05:25:33;;;;;;;7.00;2.80;;;;;;;32.08;31.58;99499.95;108185;1251;72125;-70
2023/07/20 05:28:00;;;;;;;8.50;2.70;;;;;;;32.23;31.57;99496.13;108163;1251;68832;-69
2023/07/20 05:30:29;;;;;;;5.20;2.30;;;;;;;32.22;31.63;99493.02;108146;1254;71366;-71
2023/07/20 05:32:56;;;;;;;7.90;2.40;;;;;;;32.16;30.95;99491.48;108111;1251;60023;-71
2023/07/20 05:35:25;;;;;;;7.00;2.80;;;;;;;31.98;31.13;99480.62;108247;1251;60666;-69
2023/07/20 05:37:53;;;;;;;5.80;2.80;;;;;;;32.11;31.41;99479.39;108213;1251;73293;-69
2023/07/20 05:40:21;;;;;;;6.30;2.40;;;;;;;32.21;31.17;99477.52;108205;1251;70317;-69
2023/07/20 05:42:51;;;;;;;4.30;2.60;;;;;;;32.25;31.15;99474.98;108175;1252;72311;-69
2023/07/20 05:45:20;;;;;;;;;;;;;;;32.34;30.49;99476.02;108162;1251;60057;-69
2023/07/20 05:47:47;;;;;;;6.40;2.60;;;;;;;32.24;30.54;99475.42;108156;1251;59733;-70
2023/07/20 05:50:15;;;;;;;6.80;2.50;;;;;;;32.15;30.89;99469.20;108218;1251;71981;-69
2023/07/20 05:52:42;;;;;;;6.70;2.20;;;;;;;32.26;30.71;99466.48;108184;1254;69960;-70
2023/07/20 05:55:09;;;;;;;8.90;2.20;;;;;;;32.61;30.49;99468.31;108155;1251;72736;-71
2023/07/20 05:57:41;;;;;;;7.00;2.50;;;;;;;32.92;29.80;99468.83;108201;1251;59682;-70
2023/07/20 06:00:10;;;;;;;5.20;2.50;;;;;;;32.72;29.63;99465.83;108182;1251;60009;-70
2023/07/20 06:02:42;;;;;;;6.40;2.60;;;;;;;32.73;29.93;99466.66;108151;1251;70869;-70
2023/07/20 06:05:10;;;;;;;6.70;2.70;;;;;;;33.01;29.92;99468.59;108255;1256;69030;-71
2023/07/20 06:07:37;;;;;;;9.70;3.00;;;;;;;33.24;29.43;99468.70;108219;1251;72915;-70
2023/07/20 06:10:06;;;;;;;8.70;2.70;;;;;;;33.35;28.81;99460.67;108078;1251;60204;-71
2023/07/20 06:12:33;;;;;;;3.90;2.30;;;;;;;33.55;28.34;99467.80;108108;1256;61501;-71
2023/07/20 06:15:05;;;;;;;8.40;2.70;;;;;;;33.73;28.27;99473.96;108197;1251;64054;-70
2023/07/20 06:17:32;;;;;;;7.80;2.90;;;;;;;33.91;27.62;99476.27;108237;1251;60119;-68
2023/07/20 06:20:01;;;;;;;6.60;2.30;;;;;;;34.32;27.39;99481.31;108175;1251;64462;-70
2023/07/20 06:22:29;;;;;;;7.30;2.10;;;;;;;34.66;27.18;99476.14;108198;1254;60163;-69
2023/07/20 06:24:56;;;;;;;3.80;2.30;;;;;;;34.93;27.04;99468.23;108188;1254;60514;-70
2023/07/20 06:27:24;;;;;;;8.60;2.50;;;;;;;35.09;26.54;99471.99;108091;1257;67071;-71
2023/07/20 06:29:51;;;;;;;7.80;2.50;;;;;;;35.13;25.96;99477.75;108101;1254;61545;-70
2023/07/20 06:32:19;;;;;;;6.40;2.20;;;;;;;34.92;25.91;99474.55;108056;1257;63804;-71
2023/07/20 06:34:47;;;;;;;4.70;2.30;;;;;;;34.83;26.76;99467.14;108118;1254;60349;-70
2023/07/20 06:37:14;;;;;;;6.20;2.10;;;;;;;34.79;27.00;99462.11;108145;1252;60351;-71
2023/07/20 06:39:41;;;;;;;7.70;2.40;;;;;;;34.81;26.67;99462.37;108065;1253;64990;-70
2023/07/20 06:42:12;;;;;;;6.20;2.10;;;;;;;34.76;26.36;99461.63;108088;1253;61356;-72
2023/07/20 06:44:39;;;;;;;5.50;2.30;;;;;;;34.65;26.79;99461.09;108169;1254;63860;-71
2023/07/20 06:47:07;;;;;;;7.60;2.30;;;;;;;34.72;26.85;99460.45;108081;1254;60425;-70
2023/07/20 06:49:35;;;;;;;5.90;1.90;;;;;;;34.73;26.68;99456.63;108069;1253;60067;-70
2023/07/20 06:52:02;;;;;;;5.90;2.00;;;;;;;34.78;26.85;99460.48;108095;1254;65042;-71
2023/07/20 06:54:30;;;;;;;11.60;2.50;;;;;;;35.11;26.26;99463.52;108141;1254;61456;-70
2023/07/20 06:57:02;;;;;;;7.30;1.80;;;;;;;35.44;26.11;99461.73;108079;1254;62541;-71
2023/07/20 06:59:44;;;;;;;5.50;1.90;;;;;;;35.60;24.44;99464.83;108074;1253;60438;-70
2023/07/20 07:02:17;;;;;;;6.10;2.20;;;;;;;35.61;24.56;99462.23;108058;1252;60342;-71
2023/07/20 07:04:49;;;;;;;8.30;2.30;;;;;;;35.54;25.18;99465.71;108078;1252;63688;-70
2023/07/20 07:07:25;;;;;;;4.10;1.90;;;;;;;35.42;24.61;99469.36;108064;1253;61338;-70
2023/07/20 07:09:54;;;;;;;5.70;1.90;;;;;;;35.72;24.75;99465.38;108049;1253;62450;-69
2023/07/20 07:12:50;;;;;;;5.20;2.10;;;;;;;35.79;24.80;99465.66;108087;1254;60379;-71
2023/07/20 07:15:17;;;;;;;4.90;1.90;;;;;;;35.62;24.11;99468.67;108049;1255;60365;-71
2023/07/20 07:22:16;;;;;;;3.60;1.80;;;;;;;35.02;24.15;99465.23;108134;1255;63053;-71
2023/07/20 07:24:44;;;;;;;4.20;2.00;;;;;;;35.22;23.70;99468.34;108055;1253;63761;-72
2023/07/20 07:27:12;;;;;;;6.60;1.80;;;;;;;35.33;23.59;99466.27;108048;1253;60319;-71
2023/07/20 07:29:39;;;;;;;4.50;2.00;;;;;;;35.33;23.27;99468.30;108012;1257;60359;-71
2023/07/20 07:32:07;;;;;;;4.90;1.80;;;;;;;35.67;22.86;99472.67;108049;1253;65092;-70
2023/07/20 07:34:34;;;;;;;6.60;1.90;;;;;;;35.80;22.33;99468.71;108086;1254;61347;-70
2023/07/20 07:37:02;;;;;;;4.30;2.00;;;;;;;35.76;22.21;99472.27;108031;1253;63743;-70
2023/07/20 07:39:30;;;;;;;5.20;1.70;;;;;;;35.97;22.64;99468.45;108027;1254;60335;-70
2023/07/20 07:42:02;;;;;;;4.30;1.90;;;;;;;35.87;22.55;99468.82;108074;1253;60319;-72
2023/07/20 07:44:29;;;;;;;5.10;2.10;;;;;;;35.81;22.08;99470.10;108069;1253;63677;-70
2023/07/20 07:46:57;;;;;;;6.10;1.90;;;;;;;35.85;22.00;99463.67;108066;1253;61518;-68
2023/07/20 07:49:24;;;;;;;5.00;1.80;;;;;;;36.24;21.81;99459.73;108079;1254;63740;-70
2023/07/20 07:51:52;;;;;;;5.10;1.90;;;;;;;36.47;22.31;99457.67;108013;1254;60406;-70
2023/07/20 07:54:19;;;;;;;5.30;2.10;;;;;;;36.49;22.49;99457.98;108060;1253;60340;-71
2023/07/20 07:56:46;;;;;;;7.60;2.10;;;;;;;36.59;22.39;99455.23;108037;1253;64876;-70
2023/07/20 07:59:14;;;;;;;3.80;2.10;;;;;;;36.81;22.22;99450.00;108089;1252;60901;-72
2023/07/20 08:01:41;;;;;;;5.40;2.80;;;;;;;37.24;21.88;99451.53;108115;1253;63831;-70
2023/07/20 08:04:09;;;;;;;4.10;2.20;;;;;;;37.19;22.01;99447.73;108112;1253;60397;-71
2023/07/20 08:06:36;;;;;;;4.80;2.00;;;;;;;37.01;22.08;99448.41;108081;1257;59671;-70
2023/07/20 08:09:04;;;;;;;4.10;2.10;;;;;;;37.07;21.90;99450.77;108085;1253;64893;-72
2023/07/20 08:11:33;;;;;;;4.40;2.10;;;;;;;37.05;21.71;99451.13;108059;1253;60348;-70
2023/07/20 08:14:01;;;;;;;5.90;2.40;;;;;;;36.91;21.77;99456.58;108052;1253;72629;-71
2023/07/20 08:16:28;;;;;;;5.80;2.10;;;;;;;36.72;21.59;99447.05;108048;1254;60407;-69
2023/07/20 08:18:56;;;;;;;4.60;1.80;;;;;;;36.79;22.09;99453.95;108081;1253;60392;-70
2023/07/20 08:21:24;;;;;;;5.90;2.10;;;;;;;37.22;21.88;99454.52;108057;1252;63748;-71
2023/07/20 08:23:51;;;;;;;4.90;2.50;;;;;;;37.34;21.77;99457.10;108116;1251;61511;-70
2023/07/20 08:26:22;;;;;;;3.40;2.00;;;;;;;37.84;21.59;99455.48;108192;1253;62409;-71
2023/07/20 08:28:50;;;;;;;7.30;2.00;;;;;;;38.41;20.89;99452.33;108187;1251;60575;-71
2023/07/20 08:31:18;;;;;;;4.70;1.90;;;;;;;38.58;20.59;99452.89;108204;1251;59103;-70
2023/07/20 08:33:45;;;;;;;3.40;2.50;;;;;;;38.85;20.39;99443.63;108095;1257;64954;-70
2023/07/20 08:36:12;;;;;;;7.30;2.30;;;;;;;39.26;20.29;99444.42;108252;1251;70729;-70
2023/07/20 08:38:40;;;;;;;3.10;1.50;;;;;;;39.30;19.82;99443.13;108240;1252;63898;-71
2023/07/20 08:41:07;;;;;;;2.20;1.40;;;;;;;39.21;18.83;99440.13;108207;1251;60296;-71
2023/07/20 08:43:34;;;;;;;5.50;1.60;;;;;;;39.00;19.01;99440.31;107991;1251;60345;-70
2023/07/20 08:46:02;;;;;;;4.30;1.80;;;;;;;38.86;19.05;99438.02;108091;1251;64873;-71
2023/07/20 08:48:30;;;;;;;7.30;1.80;;;;;;;38.79;19.03;99431.33;108036;1251;61374;-70
2023/07/20 08:51:00;;;;;;;6.40;2.10;;;;;;;38.66;19.03;99430.86;108099;1251;63880;-71
2023/07/20 08:53:28;;;;;;;3.40;1.50;;;;;;;38.72;18.95;99430.43;108238;1251;60485;-70
2023/07/20 08:55:55;;;;;;;2.80;1.30;;;;;;;39.07;19.06;99430.26;108098;1251;60286;-71
2023/07/20 08:58:23;;;;;;;3.60;1.70;;;;;;;39.39;18.44;99430.93;108102;1251;63885;-70
2023/07/20 09:00:51;;;;;;;3.10;1.50;;;;;;;39.50;18.60;99434.16;108197;1251;63526;-71
2023/07/20 09:03:19;;;;;;;2.70;1.40;;;;;;;39.31;18.62;99430.36;108198;1251;63730;-71
2023/07/20 09:05:47;;;;;;;5.90;1.90;;;;;;;39.14;18.84;99427.45;108038;1251;60438;-70
2023/07/20 09:08:14;;;;;;;4.50;1.70;;;;;;;39.05;18.88;99420.88;108174;1251;60432;-70
2023/07/20 09:10:42;;;;;;;3.30;1.60;;;;;;;38.87;19.05;99415.88;108177;1251;63799;-71
2023/07/20 09:13:09;;;;;;;7.10;1.80;;;;;;;39.21;19.13;99415.61;108289;1251;62082;-70
2023/07/20 09:15:37;;;;;;;8.40;1.50;;;;;;;39.45;18.73;99406.91;108221;1253;63697;-70
2023/07/20 09:18:04;;;;;;;4.50;1.50;;;;;;;39.31;18.91;99404.69;108156;1251;60338;-70
2023/07/20 09:20:33;;;;;;;6.80;2.50;;;;;;;39.01;18.91;99405.02;108199;1251;60230;-70
2023/07/20 09:23:04;;;;;;;5.60;2.00;;;;;;;38.69;18.77;99407.70;108051;1251;63805;-70
2023/07/20 09:25:31;;;;;;;5.60;1.60;;;;;;;38.63;18.85;99404.73;108165;1251;72857;-70
2023/07/20 09:28:01;;;;;;;2.70;1.40;;;;;;;38.64;18.97;99400.58;108129;1251;63668;-71
2023/07/20 09:30:29;;;;;;;2.30;1.40;;;;;;;39.05;18.91;99403.73;108056;1251;60355;-70
2023/07/20 09:33:00;;;;;;;6.30;1.80;;;;;;;39.19;18.36;99401.51;108244;1251;60339;-70
2023/07/20 09:35:28;;;;;;;3.60;1.50;;;;;;;39.10;18.49;99404.45;108112;1251;64888;-69
2023/07/20 09:38:09;;;;;;;2.30;1.40;;;;;;;39.30;18.42;99402.09;108189;1251;61394;-70
2023/07/20 09:40:39;;;;;;;3.10;1.80;;;;;;;39.85;17.95;99399.80;108097;1251;64247;-70
2023/07/20 09:43:10;;;;;;;4.20;1.80;;;;;;;40.26;17.40;99401.44;108119;1251;60497;-70
2023/07/20 09:45:41;;;;;;;3.90;1.70;;;;;;;39.98;17.39;99404.33;108221;1251;60514;-70
2023/07/20 09:48:15;;;;;;;8.80;1.70;;;;;;;39.72;17.84;99407.42;108313;1251;65041;-70
2023/07/20 09:50:49;;;;;;;2.10;1.50;;;;;;;39.47;18.05;99404.12;108274;1251;61315;-70
2023/07/20 09:53:17;;;;;;;2.40;1.40;;;;;;;39.66;18.11;99397.84;108258;1253;62514;-70
2023/07/20 09:55:48;;;;;;;4.30;1.80;;;;;;;39.64;18.29;99402.85;108242;1251;60414;-71
2023/07/20 09:58:16;;;;;;;;;;;;;;;39.51;18.39;99402.72;108213;1251;59140;-70
2023/07/20 10:00:46;;;;;;;4.70;1.70;;;;;;;38.83;18.50;99397.52;108262;1251;63683;-70
2023/07/20 10:03:21;;;;;;;4.20;1.40;;;;;;;38.51;18.97;99389.65;108231;1251;61431;-71
2023/07/20 10:05:54;;;;;;;3.90;1.50;;;;;;;38.39;19.03;99388.29;108290;1253;63776;-71
2023/07/20 10:08:24;;;;;;;3.00;1.40;;;;;;;38.43;19.18;99385.14;108189;1256;60291;-70
2023/07/20 10:10:54;;;;;;;6.30;1.50;;;;;;;38.61;19.34;99387.45;108175;1251;59546;-70
2023/07/20 10:13:26;;;;;;;4.90;1.70;;;;;;;38.31;19.25;99384.71;108067;1251;63898;-70
2023/07/20 10:15:55;;;;;;;4.10;1.90;;;;;;;37.60;19.87;99389.52;108200;1251;60335;-71
2023/07/20 10:18:28;;;;;;;5.50;2.00;;;;;;;37.26;20.63;99388.15;108221;1251;64385;-72
2023/07/20 10:20:59;;;;;;;6.40;1.70;;;;;;;37.47;20.16;99385.08;108127;1251;60422;-71
2023/07/20 10:23:30;;;;;;;3.70;1.50;;;;;;;37.79;19.44;99380.06;108093;1254;60380;-71
2023/07/20 10:25:57;;;;;;;4.80;1.70;;;;;;;38.00;19.22;99373.51;108113;1253;63673;-70
2023/07/20 10:28:27;;;;;;;8.40;1.90;;;;;;;38.22;19.31;99373.13;108122;1252;61694;-70
2023/07/20 10:30:55;;;;;;;3.00;1.70;;;;;;;38.42;19.14;99376.98;108075;1253;62994;-71
2023/07/20 10:33:22;;;;;;;2.20;1.60;;;;;;;38.16;19.21;99370.95;108051;1258;60343;-71
2023/07/20 10:36:05;;;;;;;4.30;1.80;;;;;;;38.40;19.19;99368.22;108060;1253;60528;-71
2023/07/20 10:38:56;;;;;;;2.90;1.80;;;;;;;38.73;18.79;99368.04;108098;1253;72914;-68
2023/07/20 10:41:35;;;;;;;5.50;2.00;;;;;;;38.80;18.52;99365.30;108094;1253;60380;-70
2023/07/20 10:44:09;;;;;;;3.40;1.90;;;;;;;38.63;18.72;99358.59;108094;1253;62447;-70
2023/07/20 10:46:40;;;;;;;3.50;1.70;;;;;;;38.29;19.00;99354.95;108108;1252;60377;-71
2023/07/20 10:49:09;;;;;;;8.90;1.70;;;;;;;38.06;19.10;99354.78;108100;1252;61165;-70
2023/07/20 10:51:43;;;;;;;4.50;1.80;;;;;;;37.89;19.38;99348.27;108167;1253;63708;-70
2023/07/20 10:54:17;;;;;;;5.90;2.00;;;;;;;37.69;19.56;99341.08;108130;1256;60377;-70
2023/07/20 10:56:47;;;;;;;7.60;1.30;;;;;;;37.60;19.70;99343.65;108145;1253;62454;-72
2023/07/20 10:59:19;;;;;;;6.70;1.60;;;;;;;37.30;19.82;99341.60;108109;1253;60304;-71
2023/07/20 11:01:49;;;;;;;5.80;1.70;;;;;;;37.75;19.94;99335.94;108084;1253;60404;-72
2023/07/20 11:04:18;;;;;;;4.30;1.70;;;;;;;38.13;19.29;99335.89;108100;1253;64915;-71
2023/07/20 11:06:47;;;;;;;4.80;1.70;;;;;;;38.42;18.73;99336.18;108116;1253;61521;-70
2023/07/20 11:09:16;;;;;;;3.40;1.50;;;;;;;38.63;18.77;99336.48;108015;1252;64245;-70
2023/07/20 11:11:48;;;;;;;5.70;1.80;;;;;;;38.36;18.93;99338.30;108062;1252;60918;-71
2023/07/20 11:14:25;;;;;;;2.20;1.80;;;;;;;37.84;19.25;99332.45;108102;1252;60438;-70
2023/07/20 11:16:53;;;;;;;4.00;1.60;;;;;;;37.82;19.40;99329.45;108075;1251;65118;-70
2023/07/20 11:19:25;;;;;;;5.50;1.80;;;;;;;37.60;19.41;99329.54;108148;1253;61559;-69
2023/07/20 11:21:58;;;;;;;4.40;1.60;;;;;;;37.64;19.39;99323.39;108117;1253;63823;-71
2023/07/20 11:24:31;;;;;;;6.50;2.10;;;;;;;37.98;19.22;99318.55;108172;1253;60387;-71
2023/07/20 11:26:59;;;;;;;5.80;1.50;;;;;;;38.51;19.02;99319.88;108121;1251;59337;-71
2023/07/20 11:29:27;;;;;;;7.20;1.80;;;;;;;38.63;18.93;99319.86;108204;1251;63929;-71
2023/07/20 11:32:00;;;;;;;4.70;1.70;;;;;;;38.33;19.46;99322.77;108142;1251;61357;-71
2023/07/20 11:34:30;;;;;;;8.00;2.00;;;;;;;38.02;19.23;99327.35;108212;1251;63769;-71
2023/07/20 11:36:58;;;;;;;8.50;2.50;;;;;;;37.74;19.42;99322.20;108234;1256;60635;-70
2023/07/20 11:39:28;;;;;;;;;;;;;;;37.81;19.63;99319.11;108216;1251;60932;-70
2023/07/20 11:41:56;;;;;;;8.60;1.90;;;;;;;38.07;19.60;99320.11;108163;1251;65012;-71